Airport ID:KN38
Update Time (UTC):22/04/2019 16:55
Wind Speed (Knots):12
Wind Direction (Magnetic):350
Temperature (°C):13
Dew Point (°C):7
Humidity (%):67
Altimeter (inHg):30.18
Density Altitude (Feet):
Visibility (Miles):10+
Clouds (Hundreds of feet):SCT027
Present Weather:
METAR:METAR KN38 221655Z AUTO 34012KT 10SM SCT027 13/07 A3018 RMK AO2

The data displayed is for advisory purposes only and is not to be used for flight planning or operations.

This page is not automatically refreshed. Reload the page to see current data.